Time;durP1;ratioP1;P1;durP2;ratioP2;P2;SDS_P1;SDS_P2;PMS_P1;PMS_P2;Temp;Humidity;BMP_temperature;BMP_pressure;BME280_temperature;BME280_humidity;BME280_pressure;Samples;Min_cycle;Max_cycle;Signal;HPM_P1;HPM_P2
2022/06/05 00:00:09;;;;;;;12.65;7.57;;;10.70;99.90;;;;;;5054048;28;20051;-74
2022/06/05 00:02:50;;;;;;;13.90;7.95;;;10.80;99.90;;;;;;5036008;28;20045;-75
2022/06/05 00:05:23;;;;;;;11.23;8.00;;;10.80;99.90;;;;;;5058294;28;20458;-75
2022/06/05 00:07:57;;;;;;;11.85;7.57;;;10.80;99.90;;;;;;5055488;28;20056;-74
2022/06/05 00:10:27;;;;;;;10.35;7.80;;;10.90;99.90;;;;;;5056186;28;20514;-74
2022/06/05 00:13:02;;;;;;;15.75;7.75;;;10.80;99.90;;;;;;5074384;28;20102;-74
2022/06/05 00:15:29;;;;;;;12.23;8.10;;;10.80;99.90;;;;;;5073342;28;20075;-74
2022/06/05 00:17:57;;;;;;;15.18;9.13;;;10.80;99.90;;;;;;5073748;28;20059;-75
2022/06/05 00:20:24;;;;;;;14.40;9.25;;;10.80;99.90;;;;;;5047018;28;20063;-74
2022/06/05 00:22:51;;;;;;;17.05;9.25;;;10.80;99.90;;;;;;5052768;28;20501;-74
2022/06/05 00:25:18;;;;;;;12.73;8.55;;;10.80;99.90;;;;;;5053693;28;20508;-74
2022/06/05 00:27:54;;;;;;;13.95;8.82;;;10.80;99.90;;;;;;5035892;28;20060;-75
2022/06/05 00:30:27;;;;;;;13.60;8.77;;;10.80;99.90;;;;;;5035536;28;20052;-75
2022/06/05 00:33:05;;;;;;;13.23;9.13;;;10.90;99.90;;;;;;5055545;28;20110;-75
2022/06/05 00:35:39;;;;;;;11.40;7.78;;;10.80;99.90;;;;;;5055724;28;20056;-76
2022/06/05 00:38:12;;;;;;;14.73;8.25;;;11.00;99.90;;;;;;5055228;28;20459;-76
2022/06/05 00:41:01;;;;;;;13.52;9.07;;;10.80;99.90;;;;;;5055684;28;20052;-75
2022/06/05 00:43:28;;;;;;;15.38;9.00;;;10.90;99.90;;;;;;5054868;28;20053;-75
2022/06/05 00:45:57;;;;;;;14.55;9.63;;;10.80;99.90;;;;;;5055876;28;20139;-75
2022/06/05 00:48:26;;;;;;;12.57;9.30;;;10.90;99.90;;;;;;5051460;28;20556;-75
2022/06/05 00:50:53;;;;;;;14.20;9.85;;;10.90;99.90;;;;;;5052658;28;20064;-75
2022/06/05 00:53:20;;;;;;;13.65;9.32;;;10.90;99.90;;;;;;5035536;28;20060;-75
2022/06/05 00:55:49;;;;;;;15.98;8.98;;;10.90;99.90;;;;;;5035873;28;20049;-75
2022/06/05 00:58:17;;;;;;;16.08;8.75;;;10.90;99.90;;;;;;5052541;28;20057;-76
2022/06/05 01:00:48;;;;;;;18.40;8.60;;;10.90;99.90;;;;;;5053415;28;20045;-76
2022/06/05 01:03:16;;;;;;;14.52;8.60;;;10.90;99.90;;;;;;5035284;28;20045;-75
2022/06/05 01:05:45;;;;;;;16.90;8.65;;;10.90;99.90;;;;;;5052684;28;20045;-75
2022/06/05 01:08:15;;;;;;;15.68;8.80;;;10.90;99.90;;;;;;5035399;28;20052;-75
2022/06/05 01:10:49;;;;;;;14.82;8.32;;;10.90;99.90;;;;;;5035202;28;20055;-75
2022/06/05 01:13:30;;;;;;;14.02;8.40;;;10.90;99.90;;;;;;5052394;28;20068;-75
2022/06/05 01:15:57;;;;;;;;;;;10.90;99.90;;;;;;5035751;28;20523;-75
2022/06/05 01:18:35;;;;;;;13.65;8.63;;;10.90;99.90;;;;;;5035462;28;20317;-74
2022/06/05 01:21:17;;;;;;;17.73;9.18;;;11.00;99.90;;;;;;5035357;28;20444;-75
2022/06/05 01:24:02;;;;;;;11.77;7.43;;;11.00;99.90;;;;;;5053102;28;20053;-75
2022/06/05 01:26:35;;;;;;;14.65;8.68;;;11.00;99.90;;;;;;5032637;28;20103;-75
2022/06/05 01:29:06;;;;;;;13.18;8.02;;;11.00;99.90;;;;;;5032826;28;20060;-76
2022/06/05 01:31:38;;;;;;;24.60;9.05;;;11.00;99.90;;;;;;5015218;28;20045;-76
2022/06/05 01:34:17;;;;;;;17.35;8.57;;;11.00;99.90;;;;;;5026701;28;20045;-75
2022/06/05 01:36:50;;;;;;;18.10;8.30;;;10.90;99.90;;;;;;5015584;28;20547;-76
2022/06/05 01:39:22;;;;;;;14.25;8.23;;;11.00;99.90;;;;;;5031928;28;20049;-74
2022/06/05 01:41:55;;;;;;;14.18;8.93;;;11.00;99.90;;;;;;5033099;28;20045;-76
2022/06/05 01:44:29;;;;;;;17.58;8.43;;;11.10;99.90;;;;;;5022072;28;20094;-76
2022/06/05 01:46:59;;;;;;;12.02;7.93;;;11.10;99.90;;;;;;5051942;28;20053;-75
2022/06/05 01:49:31;;;;;;;14.57;7.93;;;11.10;99.90;;;;;;5034772;28;20052;-75
2022/06/05 01:52:01;;;;;;;16.38;8.15;;;11.20;99.90;;;;;;5035025;28;20049;-76
2022/06/05 01:54:34;;;;;;;21.27;8.30;;;11.10;99.90;;;;;;5052212;28;20049;-74
2022/06/05 01:57:06;;;;;;;13.55;8.05;;;11.10;99.90;;;;;;5035093;28;20057;-74
2022/06/05 01:59:38;;;;;;;15.82;7.93;;;11.10;99.90;;;;;;5052076;28;20052;-74
2022/06/05 02:02:09;;;;;;;14.40;8.38;;;11.10;99.90;;;;;;5034484;28;20111;-73
2022/06/05 02:04:38;;;;;;;;;;;11.20;99.90;;;;;;5053176;28;20064;-75
2022/06/05 02:07:10;;;;;;;15.18;8.60;;;11.20;99.90;;;;;;5035093;28;19982;-75
2022/06/05 02:09:40;;;;;;;11.70;8.63;;;11.10;99.90;;;;;;5033884;28;20053;-74
2022/06/05 02:12:10;;;;;;;14.95;8.48;;;11.20;99.90;;;;;;5047327;28;20064;-75
2022/06/05 02:14:40;;;;;;;15.43;7.85;;;11.20;99.90;;;;;;5031507;28;20100;-75
2022/06/05 02:17:07;;;;;;;15.63;9.10;;;11.30;99.90;;;;;;5014837;28;20111;-75
2022/06/05 02:19:35;;;;;;;15.85;8.82;;;11.20;99.90;;;;;;5032441;28;20049;-75
2022/06/05 02:22:08;;;;;;;13.68;8.38;;;11.20;99.90;;;;;;5014334;28;20045;-75
2022/06/05 02:24:34;;;;;;;19.20;9.20;;;11.20;99.90;;;;;;5037922;28;20148;-74
2022/06/05 02:27:05;;;;;;;15.70;8.65;;;11.20;99.90;;;;;;5034845;28;20045;-75
2022/06/05 02:29:34;;;;;;;17.30;8.85;;;11.20;99.90;;;;;;5054406;28;20056;-75
2022/06/05 02:32:16;;;;;;;17.08;8.73;;;11.20;99.90;;;;;;5056306;28;20052;-74
2022/06/05 02:35:01;;;;;;;17.60;8.57;;;11.20;99.90;;;;;;5037740;28;20492;-75
2022/06/05 02:37:41;;;;;;;14.70;8.23;;;11.20;99.90;;;;;;5037590;28;20061;-74
2022/06/05 02:40:15;;;;;;;16.92;10.13;;;11.20;99.90;;;;;;5039505;28;20056;-75
2022/06/05 02:42:49;;;;;;;15.10;8.68;;;11.20;99.90;;;;;;5058325;28;20094;-75
2022/06/05 02:45:25;;;;;;;21.60;9.70;;;11.20;99.90;;;;;;5039629;28;20053;-74
2022/06/05 02:47:56;;;;;;;14.82;8.50;;;11.20;99.90;;;;;;5037660;28;20049;-75
2022/06/05 02:50:28;;;;;;;16.40;9.98;;;11.30;99.90;;;;;;5036883;28;20053;-75
2022/06/05 02:53:02;;;;;;;17.50;8.82;;;11.20;99.90;;;;;;5037959;28;20087;-74
2022/06/05 02:55:29;;;;;;;19.45;9.07;;;11.20;99.90;;;;;;5054806;28;20052;-74
2022/06/05 02:57:56;;;;;;;21.08;9.73;;;11.30;99.90;;;;;;5036980;28;20114;-75
2022/06/05 03:00:27;;;;;;;20.58;10.02;;;11.30;99.90;;;;;;5037905;28;20052;-74
2022/06/05 03:05:39;;;;;;;19.52;10.10;;;11.30;99.90;;;;;;5054775;28;20052;-76
2022/06/05 03:08:08;;;;;;;19.63;9.30;;;11.30;99.90;;;;;;5055545;28;20436;-76
2022/06/05 03:10:36;;;;;;;23.63;10.18;;;11.30;99.90;;;;;;5037183;28;20485;-75
2022/06/05 03:13:03;;;;;;;16.63;9.60;;;11.30;99.90;;;;;;5037414;28;20049;-74
2022/06/05 03:15:31;;;;;;;18.92;9.88;;;11.30;99.90;;;;;;5055406;28;20049;-75
2022/06/05 03:17:58;;;;;;;14.20;9.88;;;11.40;99.90;;;;;;5054291;28;20060;-75
2022/06/05 03:20:25;;;;;;;20.00;10.32;;;11.40;99.90;;;;;;5055103;28;20417;-76
2022/06/05 03:22:53;;;;;;;18.38;10.02;;;11.40;99.90;;;;;;5037971;28;20413;-74
2022/06/05 03:25:23;;;;;;;15.90;9.88;;;11.40;99.90;;;;;;5053659;28;20056;-75
2022/06/05 03:27:50;;;;;;;15.77;8.97;;;11.40;99.90;;;;;;5055074;28;20144;-75
2022/06/05 03:30:18;;;;;;;17.17;9.77;;;11.40;99.90;;;;;;5037125;28;20782;-74
2022/06/05 03:32:47;;;;;;;17.58;10.10;;;11.40;99.90;;;;;;5036457;28;20042;-74
2022/06/05 03:35:15;;;;;;;17.13;9.95;;;11.50;99.90;;;;;;5054698;28;20060;-74
2022/06/05 03:37:42;;;;;;;19.55;9.65;;;11.50;99.90;;;;;;5053455;28;20048;-75
2022/06/05 03:40:10;;;;;;;21.60;10.80;;;11.50;99.90;;;;;;5052590;28;20432;-74
2022/06/05 03:42:37;;;;;;;18.60;9.73;;;11.60;99.90;;;;;;5036913;28;20049;-74
2022/06/05 03:45:05;;;;;;;18.20;10.43;;;11.60;99.90;;;;;;5035433;28;20392;-75
2022/06/05 03:47:32;;;;;;;17.35;9.95;;;11.60;99.90;;;;;;5035731;28;20053;-74
2022/06/05 03:50:00;;;;;;;19.92;9.88;;;11.60;99.90;;;;;;5036610;28;20135;-75
2022/06/05 03:52:27;;;;;;;18.67;10.52;;;11.70;99.90;;;;;;5036927;28;20451;-75
2022/06/05 03:54:54;;;;;;;15.70;9.40;;;11.70;99.90;;;;;;5036191;28;20044;-75
2022/06/05 03:57:21;;;;;;;20.42;10.85;;;11.80;99.90;;;;;;5036965;28;20052;-74
2022/06/05 03:59:48;;;;;;;17.60;9.38;;;11.80;99.90;;;;;;5054030;28;20057;-73
2022/06/05 04:02:15;;;;;;;19.65;10.60;;;11.90;99.90;;;;;;5036543;28;20048;-74
2022/06/05 04:04:42;;;;;;;19.92;10.60;;;11.80;99.90;;;;;;5040258;28;20057;-74
2022/06/05 04:07:10;;;;;;;17.58;10.32;;;11.90;99.90;;;;;;5053290;28;20093;-74
2022/06/05 04:09:37;;;;;;;18.48;10.50;;;11.90;99.90;;;;;;5053879;28;20556;-74
2022/06/05 04:12:05;;;;;;;19.73;9.90;;;11.90;99.90;;;;;;5054019;28;20045;-74
2022/06/05 04:14:32;;;;;;;17.55;9.85;;;12.00;99.90;;;;;;5053704;28;20465;-75
2022/06/05 04:16:59;;;;;;;15.60;10.07;;;12.00;99.90;;;;;;5036771;28;20045;-74
2022/06/05 04:19:26;;;;;;;16.23;9.65;;;12.10;99.90;;;;;;5036391;28;20049;-75
2022/06/05 04:21:52;;;;;;;15.63;9.23;;;12.20;99.90;;;;;;5053393;28;20060;-75
2022/06/05 04:24:21;;;;;;;15.40;9.43;;;12.20;99.90;;;;;;5036557;28;20056;-75
2022/06/05 04:26:48;;;;;;;16.98;10.02;;;12.30;99.90;;;;;;5053902;28;20056;-76
2022/06/05 04:29:15;;;;;;;18.85;9.63;;;12.30;99.90;;;;;;5032002;28;20050;-75
2022/06/05 04:31:45;;;;;;;17.45;10.85;;;12.30;99.90;;;;;;5033989;28;20060;-75
2022/06/05 04:34:14;;;;;;;16.20;9.27;;;12.50;99.90;;;;;;5033682;28;20133;-75
2022/06/05 04:36:41;;;;;;;14.90;9.02;;;12.60;99.90;;;;;;5033108;28;20092;-75
2022/06/05 04:39:08;;;;;;;16.08;8.68;;;12.60;99.90;;;;;;5015902;28;20107;-75
2022/06/05 04:41:37;;;;;;;16.98;10.32;;;12.70;99.90;;;;;;5032985;28;20506;-75
2022/06/05 04:44:05;;;;;;;18.58;9.55;;;12.90;99.90;;;;;;5033374;28;20418;-76
2022/06/05 04:46:33;;;;;;;16.50;9.32;;;13.00;99.90;;;;;;5015982;28;20052;-76
2022/06/05 04:49:00;;;;;;;15.02;9.95;;;13.10;99.90;;;;;;5033158;28;20501;-75
2022/06/05 04:51:28;;;;;;;11.90;8.98;;;13.20;99.90;;;;;;5014746;28;20056;-75
2022/06/05 04:53:56;;;;;;;13.07;9.23;;;13.40;99.90;;;;;;5033700;28;20103;-75
2022/06/05 04:56:27;;;;;;;17.80;10.07;;;13.40;99.90;;;;;;5014994;28;20516;-75
2022/06/05 04:58:56;;;;;;;18.20;9.15;;;13.50;99.90;;;;;;5033561;28;20053;-77
2022/06/05 05:01:25;;;;;;;15.15;9.88;;;13.60;99.90;;;;;;5016046;28;20056;-74
2022/06/05 05:03:53;;;;;;;13.57;8.95;;;13.60;99.90;;;;;;5014918;28;20405;-73
2022/06/05 05:06:20;;;;;;;12.65;9.48;;;13.60;99.90;;;;;;5015803;28;20053;-74
2022/06/05 05:08:47;;;;;;;15.57;9.32;;;13.70;99.90;;;;;;5033072;28;20060;-74
2022/06/05 05:11:14;;;;;;;14.88;9.10;;;13.80;99.90;;;;;;5027977;28;20107;-74
2022/06/05 05:13:42;;;;;;;13.77;9.23;;;13.80;99.90;;;;;;5015583;28;20088;-73
2022/06/05 05:16:10;;;;;;;16.27;9.90;;;13.90;99.90;;;;;;5032853;28;20096;-75
2022/06/05 05:18:37;;;;;;;14.32;10.13;;;14.00;99.90;;;;;;5032921;28;20049;-74
2022/06/05 05:21:06;;;;;;;14.63;8.57;;;14.00;99.90;;;;;;5014956;28;20057;-75
2022/06/05 05:23:33;;;;;;;15.45;9.10;;;14.10;99.90;;;;;;5015509;28;20092;-76
2022/06/05 05:26:08;;;;;;;13.85;9.18;;;14.20;99.90;;;;;;5049146;28;20057;-76
2022/06/05 05:28:35;;;;;;;11.57;8.45;;;14.30;99.90;;;;;;5052743;28;20141;-76
2022/06/05 05:31:02;;;;;;;13.93;8.85;;;14.60;99.90;;;;;;5052378;28;20056;-75
2022/06/05 05:33:30;;;;;;;11.63;8.80;;;14.70;99.90;;;;;;5052240;28;20493;-75
2022/06/05 05:35:57;;;;;;;14.40;8.38;;;14.90;99.90;;;;;;5051755;28;20516;-75
2022/06/05 05:38:24;;;;;;;17.70;9.35;;;15.10;99.90;;;;;;5051031;28;20056;-75
2022/06/05 05:43:36;;;;;;;16.52;9.05;;;15.60;99.90;;;;;;5053391;28;20052;-75
2022/06/05 05:46:03;;;;;;;12.13;8.02;;;15.80;99.90;;;;;;5052390;28;20049;-74
2022/06/05 05:48:32;;;;;;;13.10;8.73;;;16.00;99.90;;;;;;5052874;28;20059;-74
2022/06/05 05:50:59;;;;;;;13.85;8.43;;;16.10;99.90;;;;;;5052624;28;20057;-73
2022/06/05 05:53:26;;;;;;;14.57;9.05;;;16.20;99.90;;;;;;5052088;28;20041;-74
2022/06/05 05:55:53;;;;;;;11.13;8.52;;;16.30;99.90;;;;;;5052459;28;20455;-73
2022/06/05 05:58:19;;;;;;;13.40;8.45;;;16.40;99.90;;;;;;5051693;28;20485;-75
2022/06/05 06:00:46;;;;;;;10.85;8.07;;;16.50;99.90;;;;;;5052407;28;20045;-76
2022/06/05 06:03:13;;;;;;;11.05;7.82;;;16.50;99.90;;;;;;5075673;28;20044;-77
2022/06/05 06:05:42;;;;;;;15.32;8.18;;;16.50;99.90;;;;;;5058766;28;20523;-74
2022/06/05 06:08:09;;;;;;;11.32;8.57;;;16.50;99.90;;;;;;5058298;28;20052;-74
2022/06/05 06:10:36;;;;;;;13.50;8.65;;;16.60;99.90;;;;;;5058661;28;20429;-74
2022/06/05 06:13:03;;;;;;;11.85;7.53;;;16.70;99.90;;;;;;5058735;28;20055;-75
2022/06/05 06:15:30;;;;;;;12.80;8.15;;;16.80;99.90;;;;;;5057751;28;20146;-76
2022/06/05 06:17:57;;;;;;;12.10;7.95;;;16.80;99.90;;;;;;5056562;28;20049;-76
2022/06/05 06:20:24;;;;;;;12.25;6.65;;;16.80;99.90;;;;;;5039649;28;20099;-75
2022/06/05 06:22:52;;;;;;;12.80;7.85;;;16.90;99.90;;;;;;5056315;28;20041;-74
2022/06/05 06:25:19;;;;;;;11.15;7.55;;;17.00;99.90;;;;;;5055350;28;20056;-73
2022/06/05 06:27:46;;;;;;;13.32;7.20;;;17.10;99.90;;;;;;5064909;28;20051;-74
2022/06/05 06:30:13;;;;;;;10.80;7.93;;;17.20;99.90;;;;;;5052876;28;20049;-74
2022/06/05 06:32:40;;;;;;;12.85;7.55;;;17.40;99.90;;;;;;5067088;28;20482;-74
2022/06/05 06:35:07;;;;;;;15.95;8.05;;;17.40;99.90;;;;;;5050942;28;20049;-73
2022/06/05 06:37:34;;;;;;;12.65;7.28;;;17.60;99.90;;;;;;5067979;28;20550;-73
2022/06/05 06:40:04;;;;;;;12.90;7.55;;;17.60;99.90;;;;;;5050820;28;20057;-73
2022/06/05 06:42:31;;;;;;;11.00;7.80;;;17.70;99.90;;;;;;5067631;28;20071;-74
2022/06/05 06:44:58;;;;;;;13.63;7.28;;;17.80;99.90;;;;;;5052366;28;20233;-75
2022/06/05 06:47:25;;;;;;;10.35;6.45;;;17.80;99.90;;;;;;5066699;28;20080;-75
2022/06/05 06:49:52;;;;;;;9.88;7.05;;;17.90;99.90;;;;;;5051582;28;20463;-73
2022/06/05 06:52:19;;;;;;;13.98;7.30;;;18.00;99.90;;;;;;5068275;28;20055;-75
2022/06/05 06:54:48;;;;;;;9.65;7.20;;;18.10;99.90;;;;;;5049591;28;20558;-74
2022/06/05 06:57:17;;;;;;;10.18;7.25;;;18.30;99.90;;;;;;5068658;28;20049;-74
2022/06/05 06:59:46;;;;;;;10.48;6.78;;;18.50;99.90;;;;;;5071773;28;20071;-74
2022/06/05 07:02:14;;;;;;;7.45;5.90;;;18.60;99.90;;;;;;5067791;28;20047;-73
2022/06/05 07:04:40;;;;;;;9.48;7.10;;;18.80;99.90;;;;;;5050213;28;20412;-74
2022/06/05 07:07:07;;;;;;;9.73;6.38;;;18.90;99.90;;;;;;5049103;28;20060;-75
2022/06/05 07:09:34;;;;;;;8.00;6.40;;;19.10;99.90;;;;;;5066263;28;20044;-75
2022/06/05 07:12:01;;;;;;;9.05;6.85;;;19.40;99.90;;;;;;5068248;28;20059;-76
2022/06/05 07:14:31;;;;;;;9.50;6.22;;;19.70;99.90;;;;;;5068940;28;20048;-74
2022/06/05 07:16:58;;;;;;;11.50;6.63;;;19.90;99.90;;;;;;5062739;28;20053;-74
2022/06/05 07:19:25;;;;;;;9.70;6.47;;;20.20;99.90;;;;;;5067985;28;20041;-75
2022/06/05 07:21:51;;;;;;;9.80;6.82;;;20.40;99.90;;;;;;5066365;28;20059;-76
2022/06/05 07:24:20;;;;;;;11.02;6.20;;;20.30;99.90;;;;;;5047318;28;20053;-74
2022/06/05 07:26:48;;;;;;;8.52;6.75;;;20.40;99.90;;;;;;5066394;28;22820;-74
2022/06/05 07:29:15;;;;;;;9.85;6.82;;;20.40;99.90;;;;;;5056378;28;20245;-75
2022/06/05 07:31:43;;;;;;;7.85;6.50;;;20.40;99.90;;;;;;5068178;28;20198;-74
2022/06/05 07:34:11;;;;;;;11.02;7.03;;;20.50;99.90;;;;;;5048437;28;20156;-74
2022/06/05 07:36:38;;;;;;;7.70;5.97;;;20.70;99.90;;;;;;5066968;28;20056;-75
2022/06/05 07:39:05;;;;;;;9.45;6.80;;;20.90;99.90;;;;;;5045435;28;20045;-75
2022/06/05 07:41:36;;;;;;;10.80;7.15;;;21.10;99.90;;;;;;5065964;28;20053;-74
2022/06/05 07:44:03;;;;;;;8.98;5.93;;;21.40;99.90;;;;;;5050340;28;20036;-74
2022/06/05 07:46:32;;;;;;;8.48;6.10;;;21.60;99.90;;;;;;5047596;28;20449;-74
2022/06/05 07:49:00;;;;;;;10.18;6.35;;;21.80;99.90;;;;;;5049991;28;20481;-74
2022/06/05 07:54:30;;;;;;;7.40;6.45;;;22.40;99.90;;;;;;5045947;28;20070;-73
2022/06/05 07:56:58;;;;;;;9.68;6.28;;;22.60;99.90;;;;;;5046947;28;20084;-75
2022/06/05 07:59:27;;;;;;;8.07;5.78;;;22.80;99.90;;;;;;5047721;28;20048;-75
2022/06/05 08:01:53;;;;;;;8.70;5.13;;;23.10;99.90;;;;;;5067074;28;20048;-75
2022/06/05 08:04:22;;;;;;;7.22;5.72;;;23.10;99.90;;;;;;5047757;28;20044;-74
2022/06/05 08:06:49;;;;;;;8.93;6.43;;;23.20;99.90;;;;;;5067304;28;20048;-74
2022/06/05 08:09:16;;;;;;;10.15;6.15;;;23.20;99.90;;;;;;5069420;28;20049;-75
2022/06/05 08:11:45;;;;;;;7.82;5.80;;;23.30;99.90;;;;;;5065715;28;20049;-74
2022/06/05 08:14:14;;;;;;;8.85;6.15;;;23.40;99.90;;;;;;5062284;28;20056;-74
2022/06/05 08:16:43;;;;;;;7.93;5.60;;;23.40;99.90;;;;;;5045049;28;20068;-75
2022/06/05 08:19:11;;;;;;;9.55;6.63;;;23.50;99.90;;;;;;5052087;28;20059;-75
2022/06/05 08:21:40;;;;;;;8.77;5.75;;;23.50;99.50;;;;;;5044394;28;20119;-73
2022/06/05 08:24:07;;;;;;;8.27;5.65;;;23.60;98.70;;;;;;5065501;28;20047;-74
2022/06/05 08:26:35;;;;;;;7.88;5.82;;;23.60;99.10;;;;;;5048753;28;20055;-76
2022/06/05 08:29:02;;;;;;;12.35;6.75;;;23.60;99.00;;;;;;5047524;28;20067;-75
2022/06/05 08:31:29;;;;;;;11.15;6.10;;;23.70;98.60;;;;;;5050258;28;20048;-75
2022/06/05 08:33:57;;;;;;;7.90;6.15;;;23.70;98.80;;;;;;5066273;28;20418;-74
2022/06/05 08:36:24;;;;;;;8.70;6.20;;;23.60;98.10;;;;;;5069129;28;20140;-73
2022/06/05 08:41:47;;;;;;;7.00;5.22;;;23.70;98.00;;;;;;5045370;28;20066;-75
2022/06/05 08:44:24;;;;;;;7.15;5.50;;;23.60;97.60;;;;;;5042791;28;20053;-76
2022/06/05 08:46:56;;;;;;;7.43;5.60;;;23.60;97.60;;;;;;5064527;28;20052;-76
2022/06/05 08:49:30;;;;;;;8.68;5.38;;;23.80;98.20;;;;;;5068432;28;20045;-74
2022/06/05 08:52:05;;;;;;;6.45;5.20;;;24.00;97.90;;;;;;5063417;28;20051;-75
2022/06/05 08:54:39;;;;;;;7.07;5.22;;;24.10;97.20;;;;;;5047821;28;20051;-74
2022/06/05 08:57:14;;;;;;;7.28;4.93;;;24.10;95.80;;;;;;5046967;28;20500;-76
2022/06/05 08:59:47;;;;;;;9.32;5.30;;;24.10;95.40;;;;;;5070603;28;20048;-76
2022/06/05 09:02:21;;;;;;;9.05;5.15;;;24.30;96.40;;;;;;5048130;28;20048;-75
2022/06/05 09:04:53;;;;;;;9.43;5.80;;;24.40;95.00;;;;;;5042991;28;20112;-74
2022/06/05 09:07:24;;;;;;;6.25;4.47;;;24.30;95.40;;;;;;5047275;28;20404;-77
2022/06/05 09:09:58;;;;;;;7.50;5.60;;;24.20;95.50;;;;;;5044864;28;20111;-77
2022/06/05 09:12:36;;;;;;;6.38;5.00;;;24.20;95.50;;;;;;5047744;28;20515;-76
2022/06/05 09:15:11;;;;;;;6.25;4.88;;;24.10;94.70;;;;;;5050606;28;20049;-76
2022/06/05 09:17:44;;;;;;;7.57;5.18;;;24.00;95.60;;;;;;5063008;28;20431;-76
2022/06/05 09:20:16;;;;;;;8.48;5.18;;;24.00;95.80;;;;;;5069409;28;20049;-75
2022/06/05 09:22:49;;;;;;;8.73;5.20;;;24.10;96.70;;;;;;5046972;28;20071;-77
2022/06/05 09:25:39;;;;;;;8.15;4.97;;;24.10;96.40;;;;;;5047335;28;20053;-77
2022/06/05 09:28:14;;;;;;;;;;;24.20;95.70;;;;;;5047284;28;20083;-77
2022/06/05 09:30:51;;;;;;;6.82;4.85;;;24.20;95.90;;;;;;5045835;28;19999;-77
2022/06/05 09:33:21;;;;;;;7.82;5.03;;;24.40;96.30;;;;;;5045846;28;20072;-78
2022/06/05 09:35:51;;;;;;;7.13;4.88;;;24.60;96.00;;;;;;5065909;28;20044;-77
2022/06/05 09:38:25;;;;;;;7.10;4.28;;;24.80;95.70;;;;;;5065687;28;20040;-76
2022/06/05 09:41:07;;;;;;;6.93;4.35;;;24.90;94.90;;;;;;5063071;28;20059;-76
2022/06/05 09:43:58;;;;;;;4.90;4.40;;;25.30;94.70;;;;;;5062892;28;20044;-76
2022/06/05 09:46:47;;;;;;;6.10;4.72;;;25.80;94.80;;;;;;5045200;28;20384;-77
2022/06/05 09:49:19;;;;;;;7.47;4.95;;;26.30;93.80;;;;;;5046901;28;20460;-78
2022/06/05 09:51:46;;;;;;;6.95;4.78;;;26.30;93.20;;;;;;5063771;28;20049;-77
2022/06/05 09:54:21;;;;;;;7.00;5.32;;;26.60;93.10;;;;;;5048326;28;20040;-76
2022/06/05 09:59:52;;;;;;;6.22;4.40;;;26.80;90.80;;;;;;5067143;28;20133;-76
2022/06/05 10:02:22;;;;;;;7.32;5.63;;;27.20;92.10;;;;;;5046514;28;20526;-78
2022/06/05 10:04:50;;;;;;;7.28;4.75;;;27.20;90.60;;;;;;5060717;28;20122;-77
2022/06/05 10:07:21;;;;;;;5.05;4.05;;;26.80;90.40;;;;;;5046496;28;20041;-78
2022/06/05 10:09:49;;;;;;;6.70;4.53;;;26.60;90.00;;;;;;5044878;28;20133;-75
2022/06/05 10:12:23;;;;;;;7.15;4.35;;;26.50;90.40;;;;;;5053987;28;20048;-78
2022/06/05 10:14:56;;;;;;;6.68;5.18;;;26.40;89.00;;;;;;5053588;28;20041;-76
2022/06/05 10:17:46;;;;;;;5.65;5.03;;;26.30;90.10;;;;;;5067147;28;20056;-76
2022/06/05 10:20:46;;;;;;;6.45;4.60;;;26.60;90.80;;;;;;5042751;28;20055;-77
2022/06/05 10:23:37;;;;;;;5.55;4.20;;;26.70;88.20;;;;;;5041676;28;20052;-76
2022/06/05 10:26:17;;;;;;;8.65;4.80;;;26.80;88.30;;;;;;5064666;28;20069;-76
2022/06/05 10:28:46;;;;;;;;;;;26.80;87.40;;;;;;5041953;28;20484;-78
2022/06/05 10:31:15;;;;;;;5.97;4.50;;;27.20;88.40;;;;;;5047223;28;19935;-77
2022/06/05 10:33:52;;;;;;;6.47;4.65;;;27.20;87.50;;;;;;5047016;28;20049;-77
2022/06/05 10:36:22;;;;;;;4.85;3.88;;;27.40;84.90;;;;;;5065212;28;20131;-77
2022/06/05 10:38:55;;;;;;;4.13;3.67;;;27.60;85.70;;;;;;5046704;28;20481;-78
2022/06/05 10:41:34;;;;;;;11.30;4.80;;;27.80;85.80;;;;;;5049233;28;20057;-77
2022/06/05 10:44:19;;;;;;;5.57;3.92;;;28.10;84.90;;;;;;5049203;28;20056;-79
2022/06/05 10:47:01;;;;;;;7.47;4.03;;;28.00;83.10;;;;;;5066087;28;20131;-77
2022/06/05 10:49:33;;;;;;;6.45;4.00;;;27.90;82.80;;;;;;5046506;28;20052;-79
2022/06/05 10:52:11;;;;;;;8.23;4.70;;;27.90;83.50;;;;;;5067754;28;20052;-77
2022/06/05 10:54:46;;;;;;;5.70;3.65;;;27.70;83.00;;;;;;5064529;28;20040;-76
2022/06/05 10:57:18;;;;;;;5.20;3.90;;;27.40;84.20;;;;;;5066039;28;20045;-78
2022/06/05 10:59:54;;;;;;;7.45;4.60;;;27.30;84.10;;;;;;5071440;28;20044;-78
2022/06/05 11:02:58;;;;;;;5.25;4.15;;;26.90;85.10;;;;;;5048092;28;20056;-77
2022/06/05 11:05:41;;;;;;;5.85;4.22;;;26.70;86.20;;;;;;4992107;28;20046;-76
2022/06/05 11:08:16;;;;;;;6.70;4.38;;;26.50;86.10;;;;;;5057341;28;20068;-76
2022/06/05 11:13:47;;;;;;;6.97;4.85;;;26.20;87.50;;;;;;5066224;28;20599;-75
2022/06/05 11:16:25;;;;;;;4.55;4.10;;;26.00;87.30;;;;;;5045172;28;20053;-76
2022/06/05 11:19:01;;;;;;;5.70;4.10;;;25.90;88.30;;;;;;5068402;28;20051;-75
2022/06/05 11:21:30;;;;;;;6.80;4.15;;;26.00;89.20;;;;;;5047224;28;20045;-79
2022/06/05 11:23:58;;;;;;;5.47;4.47;;;26.00;89.60;;;;;;5048815;28;20056;-78
2022/06/05 11:26:36;;;;;;;5.85;4.53;;;26.10;89.00;;;;;;5049077;28;20055;-78
2022/06/05 11:29:12;;;;;;;8.45;4.65;;;25.90;87.90;;;;;;5066362;28;20057;-79
2022/06/05 11:31:51;;;;;;;8.73;3.88;;;26.00;88.10;;;;;;5053523;28;20506;-78
2022/06/05 11:34:32;;;;;;;8.23;3.92;;;26.10;89.90;;;;;;5064968;28;20392;-77
2022/06/05 11:37:18;;;;;;;6.07;3.97;;;26.00;88.80;;;;;;5049520;28;20052;-77
2022/06/05 11:39:57;;;;;;;5.68;4.22;;;26.10;89.60;;;;;;5069061;28;20452;-76
2022/06/05 11:42:27;;;;;;;6.57;3.97;;;26.10;88.90;;;;;;5069414;28;20052;-80
2022/06/05 11:45:01;;;;;;;9.23;4.50;;;26.00;88.90;;;;;;5047073;28;20053;-81
2022/06/05 11:47:39;;;;;;;5.22;4.20;;;25.90;88.10;;;;;;5046222;28;20053;-79
2022/06/05 11:50:13;;;;;;;9.18;4.13;;;26.00;89.20;;;;;;5055062;28;20049;-80
2022/06/05 11:52:46;;;;;;;5.22;3.72;;;25.90;89.20;;;;;;5049902;28;20052;-78
2022/06/05 11:55:26;;;;;;;11.18;4.18;;;25.80;89.40;;;;;;5063197;28;20219;-78
2022/06/05 11:58:01;;;;;;;8.43;4.57;;;26.00;89.30;;;;;;5067281;28;20175;-76
2022/06/05 12:00:32;;;;;;;6.90;3.85;;;26.00;88.50;;;;;;5048540;28;20655;-76
2022/06/05 12:03:06;;;;;;;5.13;4.20;;;26.00;88.80;;;;;;5065920;28;20101;-78
2022/06/05 12:05:44;;;;;;;6.50;3.60;;;26.00;88.80;;;;;;5039779;28;20107;-81
2022/06/05 12:08:16;;;;;;;5.90;4.57;;;25.90;89.90;;;;;;5055412;28;20052;-78
2022/06/05 12:10:52;;;;;;;6.43;4.20;;;25.90;88.90;;;;;;5071018;28;20052;-78
2022/06/05 12:13:31;;;;;;;14.20;4.15;;;25.80;88.80;;;;;;5054382;28;20562;-76
2022/06/05 12:16:05;;;;;;;5.32;4.25;;;25.80;90.10;;;;;;5074213;28;20052;-78
2022/06/05 12:18:39;;;;;;;5.57;4.30;;;25.90;89.20;;;;;;5074141;28;20049;-77
2022/06/05 12:21:11;;;;;;;5.95;4.15;;;26.00;90.20;;;;;;5055425;28;20071;-78
2022/06/05 12:23:47;;;;;;;5.32;4.22;;;26.00;89.80;;;;;;5074493;28;20053;-77
2022/06/05 12:26:24;;;;;;;12.40;3.78;;;26.00;88.80;;;;;;5056085;28;20465;-78
2022/06/05 12:29:00;;;;;;;8.90;4.47;;;26.10;89.60;;;;;;5055809;28;20382;-78
2022/06/05 12:31:30;;;;;;;7.07;3.75;;;26.00;89.10;;;;;;5055678;28;20048;-78
2022/06/05 12:34:03;;;;;;;6.75;4.35;;;26.10;89.80;;;;;;5073137;28;20496;-78
2022/06/05 12:36:34;;;;;;;6.25;3.65;;;26.20;88.00;;;;;;5055897;28;20052;-77
2022/06/05 12:39:04;;;;;;;8.18;3.90;;;26.10;88.70;;;;;;5073777;28;20058;-78
2022/06/05 12:41:45;;;;;;;4.75;4.10;;;26.20;88.20;;;;;;5055188;28;20052;-79
2022/06/05 12:44:22;;;;;;;6.47;4.60;;;26.10;86.50;;;;;;5073815;28;20059;-75
2022/06/05 12:46:55;;;;;;;6.43;3.80;;;26.00;86.70;;;;;;5055751;28;20048;-77
2022/06/05 12:49:28;;;;;;;5.22;4.00;;;26.10;88.20;;;;;;5055278;28;20060;-77
2022/06/05 12:52:16;;;;;;;8.38;4.68;;;26.00;87.30;;;;;;5055640;28;20088;-78
2022/06/05 12:54:47;;;;;;;5.95;4.15;;;26.00;86.50;;;;;;5055279;28;20048;-78
2022/06/05 12:57:22;;;;;;;5.63;4.20;;;25.90;87.00;;;;;;5055723;28;20052;-77
2022/06/05 12:59:57;;;;;;;4.45;4.05;;;25.90;87.40;;;;;;5055384;28;20135;-78
2022/06/05 13:02:33;;;;;;;7.82;4.57;;;25.70;87.10;;;;;;5054641;28;20060;-77
2022/06/05 13:05:13;;;;;;;4.55;3.47;;;25.60;87.40;;;;;;5073338;28;20051;-77
2022/06/05 13:07:48;;;;;;;5.43;4.18;;;25.60;89.70;;;;;;5055372;28;20056;-78
2022/06/05 13:10:24;;;;;;;11.82;4.00;;;25.60;90.10;;;;;;5072978;28;20135;-77
2022/06/05 13:12:58;;;;;;;7.05;4.30;;;25.60;89.80;;;;;;5054577;28;20488;-78
2022/06/05 13:15:28;;;;;;;5.10;4.18;;;25.60;90.10;;;;;;5073180;28;20052;-79
2022/06/05 13:18:01;;;;;;;6.85;4.28;;;25.60;89.40;;;;;;5054824;28;20063;-78